Due to severe server failure at the provider, not all demo sites are operational. Will take some days to rebuilt everything.

Demonstration site - Click on the  for more information

This is an optional block. Switch it on/off in your settings-file: $SITE['bannerTop'] = false; or $SITE['bannerBottom'] = false;

You can display ads, any other important text or photo’s using text / html or PHP code.

You can place one or more at the top and or bottom and it can all be different for content / size .



Visit our other weather sites:

Template documentation
and downloads

And another site



Nearby METAR Reports

   
EBAW - Antwerp
Updated: 28-02-2020 15:50
Light Rain, Mostly Cloudy  
Light Rain, Mostly Cloudy  
   Wind: SSW 33.3 km/h
Wind: SSW 33.3 km/h
Temperature: 6°C
Wind Chill: 1°C
Dew Point: 1°C
Humidity: 71%
Barometer: 1011 hPa
Clouds: Mostly Cloudy
Visibility: More than 10 km
Cloud details: Few Clouds 2000 ft,
Mostly Cloudy 3000 ft
EBAW 281450Z 20018KT 9999 -RA FEW020 BKN030 06/01 Q1011 TEMPO 20015G28KT BECMG BKN013
EBLG - Liège
Updated: 28-02-2020 15:50
Few Clouds  
Few Clouds  
   Wind: South 22.2 km/h
Wind: South 22.2 km/h
Temperature: 5°C
Wind Chill: 1°C
Dew Point: 0°C
Humidity: 70%
Barometer: 1012 hPa
Clouds: Few Clouds
Visibility: More than 10 km
Cloud details: Few Clouds 2300 ft
EBLG 281450Z 18012KT 9999 FEW023 05/M00 Q1012 TEMPO 19018G30KT
EBCV - Mons/Bergen
Updated: 28-02-2020 15:55
Light Rain, Overcast  
Light Rain, Overcast  
   Wind: South 27.8 km/h
Wind: South 27.8 km/h
Temperature: 5°C
Wind Chill: 0°C
Dew Point: 2°C
Humidity: 81%
Barometer: 1010 hPa
Clouds: Overcast
Visibility: More than 10 km
Cloud details: Overcast 2400 ft
EBCV 281455Z AUTO 17015KT 9999 -RA OVC024/// 05/02 Q1010 WHT
EHBK - Maastricht
Updated: 28-02-2020 15:55
Partly Cloudy  
Partly Cloudy  
   Wind: South 29.6 km/h
Wind: South 29.6 km/h
Temperature: 6°C
Wind Chill: 2°C
Dew Point: 1°C
Humidity: 71%
Barometer: 1013 hPa
Clouds: Partly Cloudy
Visibility: More than 10 km
Cloud details: Partly Cloudy ft
EHBK 281455Z AUTO 19016KT 9999 NSC 06/01 Q1013 NOSIG
ELLX - Luxemburg
Updated: 28-02-2020 15:50
Few Clouds  
Few Clouds  
   Wind: South 16.7 km/h
Wind: South 16.7 km/h
Temperature: 5°C
Wind Chill: 2°C
Dew Point: -1°C
Humidity: 66%
Barometer: 1014 hPa
Clouds: Few Clouds
Visibility: More than 10 km
Cloud details: Few Clouds 3000 ft
ELLX 281450Z 19009KT 170V230 9999 FEW030 05/M01 Q1014 NOSIG
EBOS - Oostende
Updated: 28-02-2020 15:50
Light Rain, Mostly Cloudy  
Light Rain, Mostly Cloudy  
   Wind: South 31.5 km/h<br />Gust to 31.5 km/h
Wind: South 31.5 km/h
Gust to 31.5 km/h
Temperature: 4°C
Wind Chill: -1°C
Dew Point: 2°C
Humidity: 87%
Barometer: 1007 hPa
Clouds: Mostly Cloudy
Visibility: 7 km
Cloud details: Few Clouds 1400 ft,
Mostly Cloudy 1800 ft
EBOS 281450Z 17017G27KT 7000 -RA FEW014 BKN018 04/02 Q1007 TEMPO 4000 -RADZ SCT006 BKN012

Script developed by  Saratoga-weather.org Adapted for the template by  Weerstation Leuven

You find our weather info also at:

FRWN

Equipment we use:

Provider
Robohost

Robohost

This is an optional block. Switch it on/off in your settings-file: $SITE['bannerTop'] = false; or $SITE['bannerBottom'] = false;

You can display ads, any other important text or photo’s using text / html or PHP code.

You can place one or more at the top and or bottom and it can all be different for content / size .